Time;durP1;ratioP1;P1;durP2;ratioP2;P2;SDS_P1;SDS_P2;PMS_P1;PMS_P2;Temp;Humidity;BMP_temperature;BMP_pressure;BME280_temperature;BME280_humidity;BME280_pressure;Samples;Min_cycle;Max_cycle;Signal;HPM_P1;HPM_P2
2021/10/23 00:00:54;;;;;;;0.10;0.10;;;;;;;;;;5062014;28;20317;-70
2021/10/23 00:03:20;;;;;;;0.20;0.20;;;;;;;;;;5061981;28;20253;-69
2021/10/23 00:05:46;;;;;;;0.17;0.17;;;;;;;;;;5061182;28;20223;-70
2021/10/23 00:08:13;;;;;;;0.10;0.10;;;;;;;;;;5061755;28;21566;-71
2021/10/23 00:10:39;;;;;;;0.10;0.10;;;;;;;;;;5060669;28;20238;-71
2021/10/23 00:13:05;;;;;;;0.20;0.20;;;;;;;;;;5060913;28;20444;-69
2021/10/23 00:15:32;;;;;;;0.10;0.10;;;;;;;;;;5060996;28;20195;-70
2021/10/23 00:17:59;;;;;;;0.10;0.10;;;;;;;;;;5061513;28;21462;-71
2021/10/23 00:20:26;;;;;;;0.20;0.20;;;;;;;;;;5060534;28;20257;-71
2021/10/23 00:22:52;;;;;;;0.20;0.20;;;;;;;;;;5060895;28;20432;-73
2021/10/23 00:25:19;;;;;;;0.20;0.20;;;;;;;;;;5061079;28;20406;-72
2021/10/23 00:27:45;;;;;;;0.10;0.10;;;;;;;;;;5061187;28;20208;-72
2021/10/23 00:30:11;;;;;;;0.10;0.10;;;;;;;;;;5061078;28;20234;-71
2021/10/23 00:32:38;;;;;;;0.10;0.10;;;;;;;;;;5061055;28;20515;-71
2021/10/23 00:35:06;;;;;;;0.17;0.17;;;;;;;;;;5059412;28;20253;-70
2021/10/23 00:37:33;;;;;;;0.10;0.10;;;;;;;;;;5061248;28;20268;-67
2021/10/23 00:39:59;;;;;;;0.10;0.10;;;;;;;;;;5060046;28;20203;-72
2021/10/23 00:42:25;;;;;;;0.10;0.10;;;;;;;;;;5061690;28;20253;-72
2021/10/23 00:44:51;;;;;;;0.10;0.10;;;;;;;;;;5060473;28;20274;-70
2021/10/23 00:47:19;;;;;;;0.10;0.10;;;;;;;;;;5059698;28;20265;-71
2021/10/23 00:49:46;;;;;;;0.10;0.10;;;;;;;;;;5060687;28;20253;-72
2021/10/23 00:52:13;;;;;;;0.20;0.20;;;;;;;;;;5060058;28;20256;-72
2021/10/23 00:54:40;;;;;;;0.10;0.10;;;;;;;;;;5060201;28;20210;-72
2021/10/23 00:57:07;;;;;;;0.10;0.10;;;;;;;;;;5060560;28;20474;-72
2021/10/23 00:59:33;;;;;;;0.20;0.20;;;;;;;;;;5059630;28;20208;-70
2021/10/23 01:01:59;;;;;;;0.10;0.10;;;;;;;;;;5059505;28;20249;-71
2021/10/23 01:04:26;;;;;;;0.20;0.20;;;;;;;;;;5058905;28;20232;-72
2021/10/23 01:06:52;;;;;;;0.10;0.10;;;;;;;;;;5060077;28;20241;-71
2021/10/23 01:09:20;;;;;;;0.10;0.10;;;;;;;;;;5059185;28;20333;-71
2021/10/23 01:11:48;;;;;;;0.10;0.10;;;;;;;;;;5061536;28;20211;-73
2021/10/23 01:14:15;;;;;;;0.10;0.10;;;;;;;;;;5063026;28;20204;-73
2021/10/23 01:16:41;;;;;;;0.10;0.10;;;;;;;;;;5063255;28;20274;-71
2021/10/23 01:19:08;;;;;;;0.10;0.10;;;;;;;;;;5063058;28;20578;-71
2021/10/23 01:21:36;;;;;;;0.10;0.10;;;;;;;;;;5062953;28;20225;-71
2021/10/23 01:24:03;;;;;;;0.10;0.10;;;;;;;;;;5063274;28;20211;-72
2021/10/23 01:26:29;;;;;;;0.27;0.27;;;;;;;;;;5063134;28;20291;-72
2021/10/23 01:28:56;;;;;;;0.10;0.10;;;;;;;;;;5063178;28;20207;-71
2021/10/23 01:31:22;;;;;;;0.10;0.10;;;;;;;;;;5063252;28;20342;-72
2021/10/23 01:33:48;;;;;;;0.10;0.10;;;;;;;;;;5063252;28;20207;-72
2021/10/23 01:36:16;;;;;;;0.10;0.10;;;;;;;;;;5063040;28;20514;-71
2021/10/23 01:38:44;;;;;;;0.10;0.10;;;;;;;;;;5062709;28;20204;-71
2021/10/23 01:41:11;;;;;;;0.10;0.10;;;;;;;;;;5062864;28;20321;-71
2021/10/23 01:43:37;;;;;;;0.10;0.10;;;;;;;;;;5063013;28;20202;-71
2021/10/23 01:46:04;;;;;;;0.13;0.13;;;;;;;;;;5062464;28;20272;-72
2021/10/23 01:48:30;;;;;;;0.20;0.20;;;;;;;;;;5062896;28;20393;-73
2021/10/23 01:50:56;;;;;;;0.20;0.20;;;;;;;;;;5062942;28;20547;-72
2021/10/23 01:53:23;;;;;;;0.10;0.10;;;;;;;;;;5062571;28;20210;-72
2021/10/23 01:55:52;;;;;;;0.10;0.10;;;;;;;;;;5062872;28;20249;-71
2021/10/23 01:58:18;;;;;;;0.10;0.10;;;;;;;;;;5062751;28;20452;-72
2021/10/23 02:00:44;;;;;;;0.20;0.20;;;;;;;;;;5062879;28;20206;-72
2021/10/23 02:03:10;;;;;;;0.10;0.10;;;;;;;;;;5062725;28;20223;-71
2021/10/23 02:05:37;;;;;;;0.10;0.10;;;;;;;;;;5062577;28;20603;-72
2021/10/23 02:08:03;;;;;;;0.20;0.20;;;;;;;;;;5062836;28;20245;-72
2021/10/23 02:10:30;;;;;;;0.10;0.10;;;;;;;;;;5062388;28;20217;-71
2021/10/23 02:12:57;;;;;;;0.20;0.20;;;;;;;;;;5062779;28;20207;-72
2021/10/23 02:15:23;;;;;;;0.20;0.20;;;;;;;;;;5062277;28;20202;-72
2021/10/23 02:17:50;;;;;;;0.10;0.10;;;;;;;;;;5062839;28;20434;-72
2021/10/23 02:20:16;;;;;;;0.10;0.10;;;;;;;;;;5062308;28;20348;-72
2021/10/23 02:22:43;;;;;;;0.20;0.20;;;;;;;;;;5062617;28;20245;-72
2021/10/23 02:25:10;;;;;;;0.10;0.10;;;;;;;;;;5063520;28;20203;-72
2021/10/23 02:27:36;;;;;;;0.10;0.10;;;;;;;;;;5066588;28;20214;-73
2021/10/23 02:30:05;;;;;;;0.13;0.13;;;;;;;;;;5066607;28;20268;-72
2021/10/23 02:32:31;;;;;;;0.10;0.10;;;;;;;;;;5066592;28;20320;-72
2021/10/23 02:34:58;;;;;;;0.20;0.20;;;;;;;;;;5066490;28;20207;-71
2021/10/23 02:37:24;;;;;;;0.20;0.20;;;;;;;;;;5066544;28;20436;-72
2021/10/23 02:39:50;;;;;;;0.20;0.20;;;;;;;;;;5066346;28;20278;-72
2021/10/23 02:42:17;;;;;;;0.20;0.20;;;;;;;;;;5066354;28;20378;-73
2021/10/23 02:44:43;;;;;;;0.17;0.17;;;;;;;;;;5066269;28;20207;-73
2021/10/23 02:47:11;;;;;;;0.20;0.20;;;;;;;;;;5066260;28;20530;-74
2021/10/23 02:49:38;;;;;;;0.10;0.10;;;;;;;;;;5066144;28;20248;-71
2021/10/23 02:52:04;;;;;;;0.10;0.10;;;;;;;;;;5066107;28;20270;-72
2021/10/23 02:54:31;;;;;;;0.10;0.10;;;;;;;;;;5066015;28;20206;-71
2021/10/23 02:56:57;;;;;;;0.10;0.10;;;;;;;;;;5065998;28;20202;-72
2021/10/23 02:59:23;;;;;;;0.20;0.20;;;;;;;;;;5066105;28;20364;-72
2021/10/23 03:01:49;;;;;;;0.10;0.10;;;;;;;;;;5065987;28;20204;-72
2021/10/23 03:04:17;;;;;;;0.10;0.10;;;;;;;;;;5065793;28;20217;-72
2021/10/23 03:06:44;;;;;;;0.10;0.10;;;;;;;;;;5065744;28;20454;-71
2021/10/23 03:09:11;;;;;;;0.20;0.20;;;;;;;;;;5065837;28;20235;-72
2021/10/23 03:11:37;;;;;;;0.10;0.10;;;;;;;;;;5065706;28;20520;-71
2021/10/23 03:14:04;;;;;;;0.13;0.13;;;;;;;;;;5065820;28;20210;-71
2021/10/23 03:16:30;;;;;;;0.10;0.10;;;;;;;;;;5065656;28;20369;-72
2021/10/23 03:18:56;;;;;;;0.20;0.20;;;;;;;;;;5065426;28;20513;-72
2021/10/23 03:21:24;;;;;;;0.10;0.10;;;;;;;;;;5065656;28;20253;-73
2021/10/23 03:23:50;;;;;;;0.10;0.10;;;;;;;;;;5065519;28;20524;-69
2021/10/23 03:26:17;;;;;;;0.20;0.20;;;;;;;;;;5065137;28;20244;-72
2021/10/23 03:28:43;;;;;;;0.10;0.10;;;;;;;;;;5065023;28;20443;-72
2021/10/23 03:31:09;;;;;;;0.10;0.10;;;;;;;;;;5065497;28;20538;-72
2021/10/23 03:33:35;;;;;;;0.20;0.20;;;;;;;;;;5065561;28;20206;-73
2021/10/23 03:36:02;;;;;;;0.10;0.10;;;;;;;;;;5064547;28;20215;-72
2021/10/23 03:38:29;;;;;;;0.10;0.10;;;;;;;;;;5065372;28;20425;-72
2021/10/23 03:40:55;;;;;;;0.20;0.20;;;;;;;;;;5065296;28;20219;-71
2021/10/23 03:43:22;;;;;;;0.10;0.10;;;;;;;;;;5065266;28;20203;-71
2021/10/23 03:45:48;;;;;;;0.13;0.13;;;;;;;;;;5065137;28;20227;-72
2021/10/23 03:48:14;;;;;;;0.10;0.10;;;;;;;;;;5065077;28;20253;-71
2021/10/23 03:50:40;;;;;;;0.10;0.10;;;;;;;;;;5065174;28;20372;-72
2021/10/23 03:53:07;;;;;;;0.10;0.10;;;;;;;;;;5065046;28;20210;-72
2021/10/23 03:55:35;;;;;;;0.13;0.13;;;;;;;;;;5064721;28;20206;-72
2021/10/23 03:58:01;;;;;;;0.10;0.10;;;;;;;;;;5064620;28;20210;-72
2021/10/23 04:00:27;;;;;;;0.13;0.13;;;;;;;;;;5064442;28;20211;-72
2021/10/23 04:02:54;;;;;;;0.20;0.20;;;;;;;;;;5064548;28;20286;-72
2021/10/23 04:05:20;;;;;;;0.10;0.10;;;;;;;;;;5064390;28;20206;-71
2021/10/23 04:07:46;;;;;;;0.10;0.10;;;;;;;;;;5064390;28;20234;-72
2021/10/23 04:10:12;;;;;;;0.10;0.10;;;;;;;;;;5064734;28;20211;-72
2021/10/23 04:12:40;;;;;;;0.10;0.10;;;;;;;;;;5064751;28;20214;-72
2021/10/23 04:15:06;;;;;;;0.10;0.10;;;;;;;;;;5064259;28;20208;-73
2021/10/23 04:17:33;;;;;;;0.10;0.10;;;;;;;;;;5064351;28;20247;-73
2021/10/23 04:19:59;;;;;;;0.10;0.10;;;;;;;;;;5064592;28;20211;-72
2021/10/23 04:22:25;;;;;;;0.10;0.10;;;;;;;;;;5064433;28;20207;-72
2021/10/23 04:24:52;;;;;;;0.10;0.10;;;;;;;;;;5064492;28;20207;-72
2021/10/23 04:27:18;;;;;;;0.10;0.10;;;;;;;;;;5064430;28;20386;-72
2021/10/23 04:29:46;;;;;;;0.20;0.20;;;;;;;;;;5064165;28;20202;-72
2021/10/23 04:32:12;;;;;;;0.20;0.20;;;;;;;;;;5064331;28;20210;-72
2021/10/23 04:34:39;;;;;;;0.10;0.10;;;;;;;;;;5064287;28;20237;-72
2021/10/23 04:37:05;;;;;;;0.10;0.10;;;;;;;;;;5064181;28;20203;-72
2021/10/23 04:39:31;;;;;;;0.10;0.10;;;;;;;;;;5064125;28;20248;-72
2021/10/23 04:41:58;;;;;;;0.10;0.10;;;;;;;;;;5064099;28;20434;-72
2021/10/23 04:44:24;;;;;;;0.10;0.10;;;;;;;;;;5063936;28;20391;-72
2021/10/23 04:46:52;;;;;;;0.20;0.20;;;;;;;;;;5063351;28;20224;-71
2021/10/23 04:49:18;;;;;;;0.10;0.10;;;;;;;;;;5063506;28;20214;-73
2021/10/23 04:51:44;;;;;;;0.10;0.10;;;;;;;;;;5063855;28;20398;-71
2021/10/23 04:54:10;;;;;;;0.17;0.17;;;;;;;;;;5063918;28;20207;-72
2021/10/23 04:56:36;;;;;;;0.10;0.10;;;;;;;;;;5063521;28;20196;-72
2021/10/23 04:59:03;;;;;;;0.10;0.10;;;;;;;;;;5063595;28;20204;-72
2021/10/23 05:01:29;;;;;;;0.20;0.20;;;;;;;;;;5063635;28;20206;-72
2021/10/23 05:03:57;;;;;;;0.20;0.20;;;;;;;;;;5063401;28;20560;-71
2021/10/23 05:06:23;;;;;;;0.20;0.20;;;;;;;;;;5063441;28;20234;-70
2021/10/23 05:08:49;;;;;;;0.20;0.20;;;;;;;;;;5063654;28;20211;-72
2021/10/23 05:11:15;;;;;;;0.13;0.13;;;;;;;;;;5063617;28;20214;-72
2021/10/23 05:13:41;;;;;;;0.10;0.10;;;;;;;;;;5063553;28;20205;-72
2021/10/23 05:16:08;;;;;;;0.10;0.10;;;;;;;;;;5063473;28;20200;-72
2021/10/23 05:18:34;;;;;;;0.10;0.10;;;;;;;;;;5063260;28;20423;-72
2021/10/23 05:21:02;;;;;;;0.20;0.20;;;;;;;;;;5063230;28;20206;-72
2021/10/23 05:23:28;;;;;;;0.10;0.10;;;;;;;;;;5063334;28;20317;-72
2021/10/23 05:25:54;;;;;;;0.20;0.20;;;;;;;;;;5063186;28;20421;-72
2021/10/23 05:28:20;;;;;;;0.10;0.10;;;;;;;;;;5062915;28;20199;-72
2021/10/23 05:30:46;;;;;;;0.20;0.20;;;;;;;;;;5062828;28;20593;-72
2021/10/23 05:33:13;;;;;;;0.10;0.10;;;;;;;;;;5063179;28;20202;-72
2021/10/23 05:35:39;;;;;;;0.10;0.10;;;;;;;;;;5062812;28;20248;-71
2021/10/23 05:38:06;;;;;;;0.20;0.20;;;;;;;;;;5062860;28;20202;-72
2021/10/23 05:40:33;;;;;;;0.20;0.20;;;;;;;;;;5062579;28;20229;-73
2021/10/23 05:42:59;;;;;;;0.10;0.10;;;;;;;;;;5062778;28;20264;-72
2021/10/23 05:45:25;;;;;;;0.10;0.10;;;;;;;;;;5062624;28;20396;-72
2021/10/23 05:47:51;;;;;;;0.20;0.20;;;;;;;;;;5065366;28;20257;-72
2021/10/23 05:50:18;;;;;;;0.10;0.10;;;;;;;;;;5062716;28;20395;-71
2021/10/23 05:52:44;;;;;;;0.20;0.20;;;;;;;;;;5066735;28;20228;-71
2021/10/23 05:55:12;;;;;;;0.10;0.10;;;;;;;;;;5066618;28;20559;-72
2021/10/23 05:57:38;;;;;;;0.10;0.10;;;;;;;;;;5059882;28;20199;-72
2021/10/23 06:00:07;;;;;;;0.20;0.20;;;;;;;;;;5067711;28;20202;-73
2021/10/23 06:02:33;;;;;;;0.10;0.10;;;;;;;;;;5062263;28;20213;-71
2021/10/23 06:05:00;;;;;;;0.13;0.13;;;;;;;;;;5062419;28;20515;-72
2021/10/23 06:07:27;;;;;;;0.10;0.10;;;;;;;;;;5062420;28;20227;-73
2021/10/23 06:09:54;;;;;;;0.23;0.23;;;;;;;;;;5062388;28;20226;-72
2021/10/23 06:12:22;;;;;;;0.20;0.20;;;;;;;;;;5068017;28;20218;-73
2021/10/23 06:14:48;;;;;;;0.10;0.10;;;;;;;;;;5062591;28;20233;-72
2021/10/23 06:17:14;;;;;;;0.30;0.30;;;;;;;;;;5062334;28;20525;-73
2021/10/23 06:19:41;;;;;;;0.20;0.20;;;;;;;;;;5064604;28;20206;-72
2021/10/23 06:22:07;;;;;;;0.20;0.20;;;;;;;;;;5062198;28;20307;-72
2021/10/23 06:24:33;;;;;;;0.10;0.10;;;;;;;;;;5064817;28;20291;-73
2021/10/23 06:27:00;;;;;;;0.10;0.10;;;;;;;;;;5059654;28;20226;-72
2021/10/23 06:29:27;;;;;;;0.20;0.20;;;;;;;;;;5061983;28;20391;-72
2021/10/23 06:31:54;;;;;;;0.10;0.10;;;;;;;;;;5061868;28;20352;-71
2021/10/23 06:34:20;;;;;;;0.10;0.10;;;;;;;;;;5064836;28;20245;-72
2021/10/23 06:36:46;;;;;;;0.17;0.17;;;;;;;;;;5062258;28;20199;-72
2021/10/23 06:39:13;;;;;;;0.20;0.20;;;;;;;;;;5064659;28;20211;-71
2021/10/23 06:41:39;;;;;;;0.10;0.10;;;;;;;;;;5059468;28;20203;-71
2021/10/23 06:44:06;;;;;;;0.10;0.10;;;;;;;;;;5063815;28;20246;-71
2021/10/23 06:46:34;;;;;;;0.10;0.10;;;;;;;;;;5062829;28;20211;-72
2021/10/23 06:49:00;;;;;;;0.10;0.10;;;;;;;;;;5062143;28;20556;-72
2021/10/23 06:51:27;;;;;;;0.10;0.10;;;;;;;;;;5061491;28;20216;-71
2021/10/23 06:53:55;;;;;;;0.10;0.10;;;;;;;;;;5061816;28;20211;-72
2021/10/23 06:56:21;;;;;;;0.20;0.20;;;;;;;;;;5062887;28;20203;-72
2021/10/23 06:58:47;;;;;;;0.10;0.10;;;;;;;;;;5066399;28;20207;-71
2021/10/23 07:01:13;;;;;;;0.17;0.17;;;;;;;;;;5061997;28;20480;-73
2021/10/23 07:03:41;;;;;;;0.10;0.10;;;;;;;;;;5061620;28;20211;-71
2021/10/23 07:06:07;;;;;;;0.10;0.10;;;;;;;;;;5061924;28;20420;-73
2021/10/23 07:08:34;;;;;;;0.10;0.10;;;;;;;;;;5064239;28;20212;-66
2021/10/23 07:11:00;;;;;;;0.10;0.10;;;;;;;;;;5062878;28;20212;-66
2021/10/23 07:13:27;;;;;;;0.20;0.20;;;;;;;;;;5067641;28;20200;-64
2021/10/23 07:15:53;;;;;;;0.10;0.10;;;;;;;;;;5064414;28;20211;-64
2021/10/23 07:18:19;;;;;;;0.10;0.10;;;;;;;;;;5066423;28;20203;-66
2021/10/23 07:20:47;;;;;;;0.10;0.10;;;;;;;;;;5066885;28;20211;-64
2021/10/23 07:23:13;;;;;;;0.10;0.10;;;;;;;;;;5065296;28;20503;-65
2021/10/23 07:25:40;;;;;;;0.10;0.10;;;;;;;;;;5065123;28;20249;-65
2021/10/23 07:28:06;;;;;;;0.10;0.10;;;;;;;;;;5065190;28;20290;-65
2021/10/23 07:30:32;;;;;;;0.10;0.10;;;;;;;;;;5065097;28;20287;-65
2021/10/23 07:32:59;;;;;;;0.13;0.13;;;;;;;;;;5065242;28;20227;-64
2021/10/23 07:35:25;;;;;;;0.10;0.10;;;;;;;;;;5065342;28;20495;-64
2021/10/23 07:37:52;;;;;;;0.10;0.10;;;;;;;;;;5065290;28;20198;-64
2021/10/23 07:40:19;;;;;;;0.10;0.10;;;;;;;;;;5065315;28;20211;-66
2021/10/23 07:42:45;;;;;;;0.10;0.10;;;;;;;;;;5065018;28;20253;-66
2021/10/23 07:45:12;;;;;;;0.10;0.10;;;;;;;;;;5065032;28;20421;-70
2021/10/23 07:47:40;;;;;;;0.10;0.10;;;;;;;;;;5065048;28;20262;-71
2021/10/23 07:50:08;;;;;;;0.10;0.10;;;;;;;;;;5061816;28;20495;-70
2021/10/23 07:52:34;;;;;;;0.10;0.10;;;;;;;;;;5067363;28;20429;-70
2021/10/23 07:55:02;;;;;;;0.10;0.10;;;;;;;;;;5064662;28;20498;-71
2021/10/23 07:57:29;;;;;;;0.10;0.10;;;;;;;;;;5064122;28;20198;-70
2021/10/23 07:59:55;;;;;;;0.10;0.10;;;;;;;;;;5066134;28;20205;-70
2021/10/23 08:02:21;;;;;;;0.10;0.10;;;;;;;;;;5064642;28;20449;-72
2021/10/23 08:04:47;;;;;;;0.10;0.10;;;;;;;;;;5064327;28;20216;-70
2021/10/23 08:07:13;;;;;;;0.10;0.10;;;;;;;;;;5064767;28;20315;-71
2021/10/23 08:09:40;;;;;;;0.10;0.10;;;;;;;;;;5064268;28;20208;-70
2021/10/23 08:12:08;;;;;;;2.60;2.20;;;;;;;;;;5064528;28;20208;-70
2021/10/23 08:14:35;;;;;;;0.10;0.10;;;;;;;;;;5064260;28;20208;-71
2021/10/23 08:17:02;;;;;;;0.10;0.10;;;;;;;;;;5064491;28;20209;-71
2021/10/23 08:19:28;;;;;;;0.10;0.10;;;;;;;;;;5064389;28;20247;-70
2021/10/23 08:21:54;;;;;;;0.10;0.10;;;;;;;;;;5064579;28;20263;-72
2021/10/23 08:24:20;;;;;;;0.10;0.10;;;;;;;;;;5064153;28;20226;-70
2021/10/23 08:26:47;;;;;;;0.10;0.10;;;;;;;;;;5064327;28;20212;-70
2021/10/23 08:29:14;;;;;;;0.10;0.10;;;;;;;;;;5063964;28;20258;-70
2021/10/23 08:31:41;;;;;;;1.70;1.60;;;;;;;;;;5063803;28;20266;-70
2021/10/23 08:34:09;;;;;;;0.10;0.10;;;;;;;;;;5064157;28;20212;-70
2021/10/23 08:36:35;;;;;;;0.10;0.10;;;;;;;;;;5063979;28;20267;-71
2021/10/23 08:39:01;;;;;;;0.10;0.10;;;;;;;;;;5064167;28;20201;-70
2021/10/23 08:41:28;;;;;;;0.10;0.10;;;;;;;;;;5064049;28;20227;-70
2021/10/23 08:43:54;;;;;;;0.10;0.10;;;;;;;;;;5063917;28;20207;-71
2021/10/23 08:46:23;;;;;;;0.10;0.10;;;;;;;;;;5063920;28;20202;-71
2021/10/23 08:48:49;;;;;;;0.10;0.10;;;;;;;;;;5063999;28;20231;-70
2021/10/23 08:51:16;;;;;;;0.10;0.10;;;;;;;;;;5066031;28;20207;-70
2021/10/23 08:53:43;;;;;;;0.10;0.10;;;;;;;;;;5063444;28;20324;-70
2021/10/23 08:56:09;;;;;;;0.10;0.10;;;;;;;;;;5066202;28;20207;-71
2021/10/23 08:58:36;;;;;;;0.10;0.10;;;;;;;;;;5060700;28;20196;-70
2021/10/23 09:01:04;;;;;;;0.10;0.10;;;;;;;;;;5066320;28;20499;-70
2021/10/23 09:03:31;;;;;;;0.10;0.10;;;;;;;;;;5063035;28;20224;-70
2021/10/23 09:05:57;;;;;;;0.10;0.10;;;;;;;;;;5063330;28;20250;-70
2021/10/23 09:08:26;;;;;;;0.10;0.10;;;;;;;;;;5063236;28;20227;-71
2021/10/23 09:10:53;;;;;;;0.10;0.10;;;;;;;;;;5063151;28;20205;-70
2021/10/23 09:13:26;;;;;;;0.10;0.10;;;;;;;;;;5063390;28;20208;-71
2021/10/23 09:15:53;;;;;;;0.10;0.10;;;;;;;;;;5063759;28;20200;-70
2021/10/23 09:18:19;;;;;;;0.10;0.10;;;;;;;;;;5063605;28;20204;-69
2021/10/23 09:20:47;;;;;;;0.10;0.10;;;;;;;;;;5063205;28;20204;-71
2021/10/23 09:23:14;;;;;;;0.83;0.83;;;;;;;;;;5065964;28;20475;-71
2021/10/23 09:25:42;;;;;;;0.10;0.10;;;;;;;;;;5063089;28;20439;-71
2021/10/23 09:28:11;;;;;;;0.10;0.10;;;;;;;;;;5062610;28;20285;-70
2021/10/23 09:30:38;;;;;;;0.10;0.10;;;;;;;;;;5063029;28;20224;-71
2021/10/23 09:33:06;;;;;;;0.10;0.10;;;;;;;;;;5055337;28;20213;-72
2021/10/23 09:35:34;;;;;;;0.10;0.10;;;;;;;;;;5064216;28;20212;-71
2021/10/23 09:38:02;;;;;;;0.10;0.10;;;;;;;;;;5063226;28;20244;-72
2021/10/23 09:40:29;;;;;;;0.10;0.10;;;;;;;;;;5063342;28;20208;-73
2021/10/23 09:43:19;;;;;;;0.10;0.10;;;;;;;;;;5062984;28;20211;-70
2021/10/23 09:46:07;;;;;;;0.10;0.10;;;;;;;;;;5057437;28;20268;-70
2021/10/23 09:48:34;;;;;;;0.00;0.00;;;;;;;;;;5057954;28;20237;-71
2021/10/23 09:51:11;;;;;;;0.10;0.10;;;;;;;;;;5062838;28;20252;-71
2021/10/23 09:53:38;;;;;;;0.10;0.10;;;;;;;;;;5066991;28;20322;-72
2021/10/23 09:56:06;;;;;;;0.10;0.10;;;;;;;;;;5069809;28;20210;-71
2021/10/23 09:58:33;;;;;;;0.10;0.10;;;;;;;;;;5062740;28;20205;-71
2021/10/23 10:01:00;;;;;;;0.10;0.10;;;;;;;;;;5063067;28;20371;-70
2021/10/23 10:03:26;;;;;;;0.10;0.10;;;;;;;;;;5062497;28;20404;-71
2021/10/23 10:05:53;;;;;;;0.00;0.00;;;;;;;;;;5065270;28;20207;-72
2021/10/23 10:08:19;;;;;;;0.10;0.10;;;;;;;;;;5062717;28;20287;-71
2021/10/23 10:10:47;;;;;;;0.10;0.10;;;;;;;;;;5077109;28;20217;-72
2021/10/23 10:13:15;;;;;;;0.10;0.10;;;;;;;;;;5062829;28;20209;-70
2021/10/23 10:15:43;;;;;;;0.08;0.08;;;;;;;;;;5062745;28;20335;-71
2021/10/23 10:18:10;;;;;;;0.00;0.00;;;;;;;;;;5062668;28;20248;-73
2021/10/23 10:20:36;;;;;;;0.10;0.10;;;;;;;;;;5062715;28;20244;-69
2021/10/23 10:23:05;;;;;;;0.00;0.00;;;;;;;;;;5067065;28;20213;-71
2021/10/23 10:25:31;;;;;;;0.00;0.00;;;;;;;;;;5061814;28;20224;-71
2021/10/23 10:28:09;;;;;;;0.95;0.88;;;;;;;;;;5062308;28;20232;-70
2021/10/23 10:30:36;;;;;;;0.10;0.10;;;;;;;;;;5062465;28;20226;-71
2021/10/23 10:33:16;;;;;;;0.10;0.10;;;;;;;;;;5062528;28;20210;-71
2021/10/23 10:36:07;;;;;;;0.00;0.00;;;;;;;;;;5065805;28;20210;-71
2021/10/23 10:38:53;;;;;;;0.00;0.00;;;;;;;;;;5061654;28;20425;-71
2021/10/23 10:44:15;;;;;;;0.00;0.00;;;;;;;;;;5065129;28;20228;-70
2021/10/23 10:46:56;;;;;;;0.00;0.00;;;;;;;;;;5063250;28;20215;-72
2021/10/23 10:49:50;;;;;;;0.10;0.10;;;;;;;;;;5058299;28;20227;-69
2021/10/23 10:52:35;;;;;;;0.08;0.08;;;;;;;;;;5054407;28;20205;-72
2021/10/23 10:55:11;;;;;;;0.20;0.20;;;;;;;;;;5064615;28;20202;-71
2021/10/23 10:57:52;;;;;;;0.10;0.10;;;;;;;;;;5066348;28;20420;-71
2021/10/23 11:00:20;;;;;;;0.00;0.00;;;;;;;;;;5052655;28;20211;-70
2021/10/23 11:02:46;;;;;;;0.03;0.03;;;;;;;;;;5066016;28;20211;-70
2021/10/23 11:05:16;;;;;;;0.00;0.00;;;;;;;;;;5065869;28;20246;-70
2021/10/23 11:08:01;;;;;;;0.00;0.00;;;;;;;;;;5055220;28;20305;-71
2021/10/23 11:10:42;;;;;;;0.10;0.10;;;;;;;;;;5065974;28;20206;-69
2021/10/23 11:13:23;;;;;;;1.10;0.33;;;;;;;;;;5065780;28;20201;-70
2021/10/23 11:15:50;;;;;;;0.03;0.03;;;;;;;;;;5065401;28;20207;-70
2021/10/23 11:18:17;;;;;;;0.00;0.00;;;;;;;;;;5065913;28;20211;-69
2021/10/23 11:20:44;;;;;;;0.10;0.10;;;;;;;;;;5065594;28;20208;-70
2021/10/23 11:23:12;;;;;;;0.20;0.20;;;;;;;;;;5065682;28;20204;-71
2021/10/23 11:25:38;;;;;;;0.10;0.10;;;;;;;;;;5065629;28;20411;-69
2021/10/23 11:28:10;;;;;;;0.03;0.03;;;;;;;;;;5065658;28;20224;-69
2021/10/23 11:30:42;;;;;;;0.10;0.10;;;;;;;;;;5065692;28;20299;-71
2021/10/23 11:33:13;;;;;;;0.10;0.10;;;;;;;;;;5052205;28;20232;-70
2021/10/23 11:35:40;;;;;;;0.00;0.00;;;;;;;;;;5065392;28;20267;-71
2021/10/23 11:38:07;;;;;;;0.45;0.45;;;;;;;;;;5064942;28;20204;-70
2021/10/23 11:40:35;;;;;;;0.10;0.10;;;;;;;;;;5065172;28;20208;-68
2021/10/23 11:43:01;;;;;;;0.10;0.10;;;;;;;;;;5065478;28;20199;-71
2021/10/23 11:45:28;;;;;;;0.10;0.10;;;;;;;;;;5065383;28;20286;-71
2021/10/23 11:47:54;;;;;;;0.03;0.03;;;;;;;;;;5065286;28;20204;-70
2021/10/23 11:50:26;;;;;;;11.33;0.80;;;;;;;;;;5065453;28;20249;-71
2021/10/23 11:52:53;;;;;;;0.10;0.10;;;;;;;;;;5065304;28;20222;-71
2021/10/23 11:55:29;;;;;;;0.10;0.10;;;;;;;;;;5067840;28;20201;-71
2021/10/23 11:57:56;;;;;;;0.10;0.10;;;;;;;;;;5064540;28;20204;-71
2021/10/23 12:00:22;;;;;;;0.10;0.10;;;;;;;;;;5064853;28;20213;-71
2021/10/23 12:02:50;;;;;;;0.10;0.10;;;;;;;;;;5065022;28;20511;-69
2021/10/23 12:05:17;;;;;;;0.10;0.10;;;;;;;;;;5065090;28;20441;-71
2021/10/23 12:07:45;;;;;;;0.10;0.10;;;;;;;;;;5064816;28;20255;-71
2021/10/23 12:10:11;;;;;;;0.10;0.10;;;;;;;;;;5065015;28;20228;-70
2021/10/23 12:12:38;;;;;;;0.10;0.10;;;;;;;;;;5065089;28;20213;-71
2021/10/23 12:15:14;;;;;;;0.10;0.10;;;;;;;;;;5064845;28;20245;-70
2021/10/23 12:17:41;;;;;;;0.10;0.10;;;;;;;;;;5064611;28;20206;-70
2021/10/23 12:20:13;;;;;;;0.10;0.10;;;;;;;;;;5064450;28;20247;-70
2021/10/23 12:22:40;;;;;;;0.10;0.10;;;;;;;;;;5064602;28;20212;-71
2021/10/23 12:25:11;;;;;;;6.47;6.03;;;;;;;;;;5064690;28;20484;-70
2021/10/23 12:27:37;;;;;;;0.10;0.10;;;;;;;;;;5064817;28;20237;-71
2021/10/23 12:30:04;;;;;;;0.10;0.10;;;;;;;;;;5064539;28;20234;-70
2021/10/23 12:32:35;;;;;;;0.10;0.10;;;;;;;;;;5064537;28;20269;-69
2021/10/23 12:35:02;;;;;;;0.10;0.10;;;;;;;;;;5064518;28;20434;-70
2021/10/23 12:37:32;;;;;;;0.10;0.10;;;;;;;;;;5064426;28;20227;-70
2021/10/23 12:40:01;;;;;;;0.10;0.10;;;;;;;;;;5064439;28;20206;-72
2021/10/23 12:42:29;;;;;;;0.10;0.10;;;;;;;;;;5064356;28;20204;-71
2021/10/23 12:44:55;;;;;;;0.10;0.10;;;;;;;;;;5064331;28;20287;-71
2021/10/23 12:47:21;;;;;;;0.10;0.10;;;;;;;;;;5063708;28;20200;-71
2021/10/23 12:49:47;;;;;;;0.10;0.10;;;;;;;;;;5063778;28;20227;-71
2021/10/23 12:52:14;;;;;;;0.10;0.10;;;;;;;;;;5064210;28;20210;-71
2021/10/23 12:54:40;;;;;;;0.10;0.10;;;;;;;;;;5064154;28;20206;-70
2021/10/23 12:57:06;;;;;;;0.10;0.10;;;;;;;;;;5064019;28;20264;-70
2021/10/23 12:59:34;;;;;;;0.10;0.10;;;;;;;;;;5063996;28;20409;-72
2021/10/23 13:02:01;;;;;;;0.10;0.10;;;;;;;;;;5049819;28;20215;-71
2021/10/23 13:04:27;;;;;;;0.10;0.10;;;;;;;;;;5063533;28;20211;-70
2021/10/23 13:06:53;;;;;;;0.10;0.10;;;;;;;;;;5063899;28;20208;-72
2021/10/23 13:09:20;;;;;;;3.90;3.80;;;;;;;;;;5063116;28;20300;-71
2021/10/23 13:11:46;;;;;;;0.07;0.07;;;;;;;;;;5063832;28;20230;-71
2021/10/23 13:14:12;;;;;;;0.20;0.20;;;;;;;;;;5063646;28;20269;-69
2021/10/23 13:16:42;;;;;;;0.20;0.20;;;;;;;;;;5073943;28;20207;-71
2021/10/23 13:19:08;;;;;;;0.63;0.63;;;;;;;;;;5066905;28;20205;-70
2021/10/23 13:21:35;;;;;;;0.10;0.10;;;;;;;;;;5063695;28;20325;-70
2021/10/23 13:24:01;;;;;;;0.10;0.10;;;;;;;;;;5063317;28;20207;-71
2021/10/23 13:26:27;;;;;;;0.10;0.10;;;;;;;;;;5063600;28;20261;-70
2021/10/23 13:28:53;;;;;;;0.10;0.10;;;;;;;;;;5068336;28;20220;-71
2021/10/23 13:31:20;;;;;;;0.10;0.10;;;;;;;;;;5063366;28;20269;-71
2021/10/23 13:33:47;;;;;;;0.10;0.10;;;;;;;;;;5063349;28;20206;-71
2021/10/23 13:36:13;;;;;;;0.10;0.10;;;;;;;;;;5063212;28;20428;-71
2021/10/23 13:38:40;;;;;;;0.10;0.10;;;;;;;;;;5062771;28;20203;-70
2021/10/23 13:41:07;;;;;;;0.10;0.10;;;;;;;;;;5063022;28;20207;-71
2021/10/23 13:43:33;;;;;;;0.10;0.10;;;;;;;;;;5062969;28;20294;-71
2021/10/23 13:45:59;;;;;;;0.10;0.10;;;;;;;;;;5063147;28;20245;-70
2021/10/23 13:48:26;;;;;;;0.10;0.10;;;;;;;;;;5066460;28;20210;-69
2021/10/23 13:50:54;;;;;;;0.10;0.10;;;;;;;;;;5069455;28;20204;-72
2021/10/23 13:53:21;;;;;;;0.03;0.03;;;;;;;;;;5062584;28;20215;-72
2021/10/23 13:55:47;;;;;;;0.10;0.10;;;;;;;;;;5064721;28;20261;-71
2021/10/23 13:58:13;;;;;;;0.10;0.10;;;;;;;;;;5064845;28;20438;-71
2021/10/23 14:00:41;;;;;;;0.10;0.10;;;;;;;;;;5063064;28;20202;-70
2021/10/23 14:03:07;;;;;;;0.10;0.10;;;;;;;;;;5060206;28;20226;-64
2021/10/23 14:05:34;;;;;;;0.10;0.10;;;;;;;;;;5074599;28;20215;-63
2021/10/23 14:08:02;;;;;;;0.10;0.10;;;;;;;;;;5062648;28;20245;-63
2021/10/23 14:10:28;;;;;;;0.10;0.10;;;;;;;;;;5062431;28;20229;-62
2021/10/23 14:12:54;;;;;;;0.00;0.00;;;;;;;;;;5062697;28;20214;-63
2021/10/23 14:15:21;;;;;;;0.10;0.10;;;;;;;;;;5062425;28;20206;-64
2021/10/23 14:17:47;;;;;;;0.10;0.10;;;;;;;;;;5062335;28;20203;-63
2021/10/23 14:20:13;;;;;;;0.10;0.10;;;;;;;;;;5064022;28;20275;-63
2021/10/23 14:22:41;;;;;;;0.10;0.10;;;;;;;;;;5066352;28;20434;-62
2021/10/23 14:25:10;;;;;;;0.10;0.10;;;;;;;;;;5066241;28;20260;-63
2021/10/23 14:27:55;;;;;;;0.10;0.10;;;;;;;;;;5066489;28;20208;-62
2021/10/23 14:30:21;;;;;;;0.10;0.10;;;;;;;;;;5066301;28;20234;-63
2021/10/23 14:32:47;;;;;;;0.10;0.10;;;;;;;;;;5066678;28;20207;-62
2021/10/23 14:35:14;;;;;;;0.10;0.10;;;;;;;;;;5066528;28;20210;-64
2021/10/23 14:37:40;;;;;;;0.10;0.10;;;;;;;;;;5066694;28;20214;-63
2021/10/23 14:40:09;;;;;;;0.10;0.10;;;;;;;;;;5066630;28;20262;-62
2021/10/23 14:42:35;;;;;;;0.10;0.10;;;;;;;;;;5066225;28;20539;-64
2021/10/23 14:45:02;;;;;;;0.10;0.10;;;;;;;;;;5066328;28;20210;-62
2021/10/23 14:47:28;;;;;;;0.10;0.10;;;;;;;;;;5066488;28;20253;-63